Aviation Digital Data Service (ADDS)

Output produced by METARs form (2224 UTC 17 October 2017)
found at http://aviationweather.gov/adds/metars/
 
KDAG 172150Z AUTO 07004KT 10SM CLR 32/M09 A3001 RMK AO2 SLP140 T03171094
KDAG 171720Z 1718/1818 27008KT P6SM SCT250 
     FM172000 31007KT P6SM BKN150 
     FM180300 26010KT P6SM BKN150
       
KEDW 172158Z 22009KT 90SM FEW150 BKN300 33/M15 A3000 RMK AO2A SLP143 T03261147
TAF KEDW 171808Z 1718/1824 21009KT 9999 BKN300 QNH3010INS 
     BECMG 1722/1723 27012G17KT 9999 BKN180 BKN300 QNH3003INS 
     BECMG 1802/1803 23009KT 9999 BKN100 BKN200 QNH3008INS 
     BECMG 1819/1820 25009KT 9999 SCT150 BKN200 QNH3005INS TX30/1723Z TN08/1813Z
       
KVCV 172215Z AUTO 30004KT 10SM CLR 32/M07 A3006 RMK AO2
KONT 172153Z 27008KT 230V300 10SM SCT200 BKN270 36/M06 A2993 RMK AO2 SLP117 T03561061
KONT 171727Z 1718/1824 VRB04KT P6SM BKN250 
     FM172000 25010KT P6SM BKN200 
     FM180400 VRB04KT P6SM BKN200 
     FM182000 25010KT P6SM BKN200
       
KNID 172156Z 11003KT 10SM FEW250 BKN300 29/M14 A3003 RMK AO2 SLP157 T02891139
TAF AMD KNID 1716/1815 VRB05KT 9999 FEW220 BKN280 QNH3004INS 
     BECMG 1718/1720 14006KT 9999 FEW120 SCT220 BKN280 QNH2996INS 
     BECMG 1800/1802 19008G15KT 9999 SCT100 SCT180 BKN250 601804 QNH3000INS 
     TEMPO 1802/1808 9999 VCSHRA BKN100 OVC180 
     FM180800 21007KT 9999 SCT100 BKN180 601804 QNH3002INS 
     TEMPO 1808/1812 9999 VCSHRA BKN100 OVC180 
     BECMG 1812/1814 VRB05KT 9999 NSW FEW100 SCT180 BKN250 QNH3004INS T31/1723Z T02/1814Z AMD 1605
       
KSNA 172153Z 22007KT 10SM SCT250 29/09 A2992 RMK AO2 SLP130 T02940089
KSNA 171727Z 1718/1818 VRB04KT P6SM BKN200 
     FM171900 22008KT P6SM BKN200 
     FM180100 VRB04KT P6SM BKN200 
     FM181400 VRB04KT P6SM SCT004 BKN200
       
KSAN 172151Z 32008KT 10SM FEW012 FEW200 BKN250 27/16 A2994 RMK AO2 SLP139 T02670161
KSAN 172049Z 1721/1824 29008KT P6SM SCT200 
     FM180100 VRB04KT P6SM BKN200 
     FM181200 VRB04KT P6SM SCT006 BKN200 
     FM182000 27008KT P6SM BKN200
       
KNXP 172156Z 00000KT 10SM FEW060 SCT200 33/M22 A3007 RMK AO2 SLP149 FIRST T03281222 $
TAF KNXP 1721/1821 VRB05KT 9999 SCT250 QNH3004INS 
     BECMG 1801/1803 25006KT 9999 FEW250 QNH3006INS 
     BECMG 1807/1809 30006KT 9999 FEW150 SCT200 QNH3001INS T34/1723Z T18/1813Z
       
KPSP 172153Z VRB06KT 10SM CLR 38/M11 A2990 RMK AO2 SLP122 T03781111
KPSP 171727Z 1718/1818 VRB05KT P6SM SCT200
       
KLAX 172153Z 25010KT 10SM FEW150 FEW250 28/09 A2992 RMK AO2 SLP130 T02830089
KLAX 172045Z 1721/1824 26012KT P6SM FEW050 SCT200 
     FM180300 26005KT P6SM BKN150 
     FM181300 04003KT P6SM FEW020 
     FM181500 06003KT 5SM HZ FEW018 
     FM182000 27013KT P6SM SCT250
       
KCNO 172153Z 26010KT 10SM SCT200 37/M04 A2993 RMK AO2 SLP127 T03671044
KSMO 172151Z 21007KT 10SM CLR 28/12 A2992 RMK AO2 SLP130 T02780122
KSMO 171739Z 1718/1818 VRB03KT P6SM SCT250 
     FM171900 24009KT P6SM BKN200 
     FM180100 23006KT P6SM BKN150 
     FM180300 VRB03KT P6SM BKN150 
     FM181500 VRB03KT 6SM HZ FEW015
       
KLGB 172153Z 29011KT 10SM CLR 31/06 A2992 RMK AO2 WSHFT 2051 SLP130 T03060056
KLGB 172108Z 1721/1818 29013KT P6SM BKN200 
     FM180100 29009KT P6SM BKN150 
     FM180400 VRB03KT P6SM BKN150 
     FM181400 VRB03KT 6SM HZ FEW015
       
KVNY 172151Z 28006KT 10SM CLR 36/M05 A2992 RMK AO2 SLP121 T03561050
KVNY 171739Z 1718/1818 VRB03KT P6SM SCT200 
     FM172000 13006KT P6SM BKN200 
     FM180100 30005KT P6SM BKN200 
     FM180300 VRB03KT P6SM BKN200 
     FM181400 VRB03KT 6SM HZ FEW015
       
KBUR 172153Z AUTO 16005KT 10SM CLR 33/03 A2993 RMK AO2 SLP120 T03280028
KBUR 171739Z 1718/1818 VRB03KT P6SM SCT200 
     FM172100 18006KT P6SM BKN200 
     FM180300 VRB03KT P6SM BKN200 
     FM181300 VRB03KT 6SM HZ FEW015
       
KBFL 172154Z 01004KT 8SM CLR 31/03 A3001 RMK AO2 SLP155 T03110033
KBFL 171741Z 1718/1818 15005KT P6SM SKC 
     FM172100 30008KT P6SM FEW080 BKN120 
     FM180400 VRB04KT P6SM BKN080 
     FM181500 18005KT P6SM SCT200
       
KPMD 172153Z AUTO 33012KT 10SM CLR 34/M06 A3004 RMK AO2 SLP150 T03391061
KPMD 172108Z 1721/1818 VRB03KT P6SM FEW120 
     FM172200 28012KT P6SM BKN200 
     FM180400 25008KT P6SM BKN200 
     FM180900 22005KT P6SM SCT250
       
KOXR 172151Z 28012KT 10SM CLR 23/16 A2994 RMK AO2 SLP136 T02330156
KOXR 171739Z 1718/1818 VRB04KT P6SM FEW120 
     FM171830 26011KT P6SM SCT120 
     FM172000 27013KT P6SM BKN120 
     FM180200 28005KT P6SM BKN100 
     FM180900 03004KT P6SM BKN150 
     FM181200 VRB03KT 5SM HZ SCT200
       
KWJF 172156Z 28006KT 10SM CLR 34/M06 A3003 RMK AO2 SLP154 T03391061
KWJF 171739Z 1718/1818 VRB03KT P6SM SCT250 
     FM172000 30006KT P6SM BKN200 
     FM172200 27011KT P6SM BKN200 
     FM180400 27008KT P6SM BKN200 
     FM181200 VRB03KT P6SM SCT250
       
KCMA 172155Z 24007KT 10SM CLR 27/14 A2993 RMK AO2 SLP144 T02670144
KCMA 171739Z 1718/1818 VRB04KT P6SM SCT200 
     FM171900 23010KT P6SM SCT150 
     FM172200 26011KT P6SM BKN150 
     FM180300 21005KT P6SM BKN150 
     FM181200 VRB03KT 5SM HZ SCT200
       
KFAT 172153Z 30008KT 6SM HZ FU FEW100 BKN150 BKN200 28/03 A3003 RMK AO2 SLP166 MTNS OBSC DSNT N-E-SE T02780028
KFAT 171741Z 1718/1818 00000KT 4SM HZ FU SCT150 BKN200 
     FM172000 31007KT P6SM FEW150 BKN200 
     FM180800 VRB04KT P6SM BKN150
       
KEED 172156Z AUTO 00000KT 10SM CLR 34/M14 A2994 RMK AO2 SLP111 T03391139
KEED 171720Z 1718/1818 VRB05KT P6SM SCT250 
     FM180300 26006KT P6SM SCT150 BKN250
       
KLSV 172158Z AUTO 00000KT 10SM CLR 29/M12 A3000 RMK AO2 SLP145 T02891123 $
TAF KLSV 171507Z 1715/1821 VRB06KT 9999 SKC QNH3012INS 
     BECMG 1720/1721 18009KT 9999 FEW200 QNH3006INS 
     BECMG 1808/1809 32006KT 9999 BKN200 QNH2998INS TX30/1721Z TN05/1812Z
       
KLAS 172156Z 04004KT 10SM SCT250 29/M11 A3002 RMK AO2 SLP149 T02891106
KLAS 172159Z 1722/1824 09006KT P6SM SCT250 
     FM180300 21006KT P6SM BKN180 
     FM181600 VRB05KT P6SM BKN120 
     FM182000 08006KT P6SM BKN120
       
KHII 172215Z AUTO 30003KT 10SM CLR 34/M08 A2992 RMK AO2
KIFP 172215Z 33010KT 10SM CLR 33/M12 A2992 RMK AO2
KIFP 171720Z 1718/1818 01010G16KT P6SM SCT250 
     FM172200 VRB05KT P6SM SCT150 BKN250 
     FM180600 35008KT P6SM BKN180